• Join FlightAware (Why Join?)
  • Login
  • US Flag 
04:27AM EDT


 

Airport Tracker/Info


-or-


 

Live Flight TrackerFlight Track Log ✈ ASQ5875 ✈ 28-Apr-2013 ✈ KORD - CYUL

Flight Track Log - Related Links

Times and Time Zones

All times are in EDT time to prevent confusion due to time zone crossing. See the ASQ5875 flight status page for this flight to view local times or setup timezone preferences in your user account.

Time Position Orientation Groundspeed Altitude Reporting Facility
EDT Latitude Longitude Course Direction KTS MPH feet Rate Location/Type
12:08PM 41.9667 -87.8333 66° East 169 194 3,500  Level Chicago TRACON
12:10PM 41.9586 -87.7119 95° East 208 239 5,000 1,320 Climbing Chicago Center
12:11PM 41.9833 -87.6197 70° East 259 298 7,000 1,920 Climbing Chicago Center
12:12PM 42.0256 -87.5381 55° Northeast 266 306 9,000 1,980 Climbing Chicago Center
12:13PM 42.0808 -87.4372 54° Northeast 278 320 11,100 1,860 Climbing Chicago Center
12:14PM 42.2595 -87.0883 66° East  Level FlightAware Approximate
12:14PM 42.1281 -87.3472 55° Northeast 289 333 12,900  Level Chicago Center
12:15PM 42.1778 -87.2539 54° Northeast 303 349 13,700 720 Climbing Chicago Center
12:16PM 42.1864 -87.1214 85° East 343 395 14,500 900 Climbing Chicago Center
12:17PM 42.1928 -86.9861 86° East 358 412 15,600 1,020 Climbing Chicago Center
12:18PM 42.1989 -86.8511 86° East 362 417 16,700 960 Climbing Chicago Center
12:19PM 42.2056 -86.7144 86° East 366 421 17,700 960 Climbing Chicago Center
12:20PM 42.2128 -86.5672 86° East 375 432 18,800 960 Climbing Chicago Center
12:21PM 42.2189 -86.4239 87° East 381 438 19,700 960 Climbing Chicago Center
12:22PM 42.2261 -86.2511 87° East 385 443 20,800 960 Climbing Chicago Center
12:23PM 42.2322 -86.1042 87° East 390 449 21,700 780 Climbing Chicago Center
12:24PM 42.2386 -85.9542 87° East 397 457 22,500 900 Climbing Chicago Center
12:25PM 42.2436 -85.8178 87° East 398 458 23,600 1,200 Climbing Chicago Center
12:26PM 42.2500 -85.6428 87° East 395 455 25,000 1,140 Climbing Chicago Center
12:27PM 42.2544 -85.4989 88° East 390 449 26,000 960 Climbing Chicago Center
12:28PM 42.2597 -85.3550 87° East 387 445 27,000 900 Climbing Chicago Center
12:29PM 42.2631 -85.3086 84° East 383 441 27,300 900 Climbing Cleveland Center
12:30PM 42.2689 -85.1658 87° East 383 441 28,300 960 Climbing Cleveland Center
12:31PM 42.2553 -85.0303 98° East 383 441 29,300 960 Climbing Cleveland Center
12:32PM 42.2419 -84.8861 97° East 378 435 30,300 960 Climbing Cleveland Center
12:33PM 42.2306 -84.7450 96° East 378 435 31,300 960 Climbing Cleveland Center
12:34PM 42.2125 -84.6094 100° East 372 428 32,300 1,140 Climbing Cleveland Center
12:35PM 42.1989 -84.4569 97° East 372 428 33,600 1,080 Climbing Cleveland Center
12:36PM 42.1889 -84.3164 95° East 372 428 34,500 480 Climbing Cleveland Center
12:37PM 42.2111 -84.2111 74° East 367 422 34,600 240 Climbing Cleveland Center
12:38PM 42.2511 -84.0617 70° East 367 422 35,000 180 Climbing Cleveland Center
12:39PM 42.2928 -83.9208 68° East 387 445 35,000  Level Cleveland Center
12:40PM 42.3367 -83.7742 68° East 404 465 35,000  Level Cleveland Center
12:41PM 42.3803 -83.6247 68° East 415 478 35,000  Level Cleveland Center
12:42PM 42.4244 -83.4494 71° East 438 504 35,000  Level Cleveland Center
12:43PM 42.4656 -83.3050 69° East 448 516 35,000  Level Cleveland Center
12:44PM 42.5108 -83.1436 69° East 448 516 35,000  Level Cleveland Center
12:45PM 42.5539 -82.9875 69° East 443 510 35,000  Level Cleveland Center
12:46PM 42.5967 -82.8283 70° East 443 510 35,000  Level Cleveland Center
12:47PM 42.6392 -82.6717 70° East 443 510 35,000  Level Cleveland Center
12:48PM 42.6817 -82.5122 70° East 443 510 35,000  Level Cleveland Center
12:49PM 42.7258 -82.3525 69° East 443 510 35,000  Level Cleveland Center
12:50PM 42.7678 -82.1894 71° East 443 510 35,000  Level Cleveland Center
12:51PM 42.8097 -82.0236 71° East 443 510 35,000  Level Cleveland Center
12:53PM 42.9000 -81.6333 72° East 460 529 35,000  Level Toronto Center
12:54PM 42.9333 -81.4500 76° East 460 529 35,000  Level Toronto Center
12:55PM 42.9833 -81.3000 65° Northeast 470 541 35,000  Level Toronto Center
12:56PM 43.0333 -81.1333 68° East 470 541 35,000  Level Toronto Center
12:57PM 43.0833 -80.9500 69° East 470 541 35,000  Level Toronto Center
12:58PM 43.1500 -80.8167 56° Northeast 480 552 35,000  Level Toronto Center
12:59PM 43.2333 -80.6333 58° Northeast 480 552 35,000  Level Toronto Center
01:00PM 43.3000 -80.4833 59° Northeast 480 552 35,000  Level Toronto Center
01:01PM 43.3667 -80.3500 55° Northeast 480 552 35,000  Level Toronto Center
01:02PM 43.4333 -80.1667 63° Northeast 480 552 35,000  Level Toronto Center
01:03PM 43.4833 -80.0000 67° East 490 564 35,000  Level Toronto Center
01:04PM 43.5667 -79.8333 55° Northeast 490 564 35,000  Level Toronto Center
01:05PM 43.6167 -79.6833 65° Northeast 490 564 35,000  Level Toronto Center
01:06PM 43.6667 -79.5000 69° East 490 564 35,000  Level Toronto Center
01:07PM 43.7167 -79.3333 67° East 490 564 35,000  Level Toronto Center
01:08PM 43.7667 -79.1500 69° East 490 564 35,000  Level Toronto Center
01:09PM 43.8167 -78.9833 67° East 490 564 35,000  Level Toronto Center
01:10PM 43.8833 -78.8000 63° Northeast 470 541 35,000  Level Toronto Center
01:11PM 43.9333 -78.6667 62° Northeast 460 529 35,000  Level Toronto Center
01:12PM 43.9667 -78.4667 77° East 470 541 35,000  Level Toronto Center
01:13PM 44.0167 -78.3167 65° Northeast 470 541 35,000  Level Toronto Center
01:14PM 44.0667 -78.1500 67° East 470 541 35,000  Level Toronto Center
01:15PM 44.1167 -77.9833 67° East 470 541 35,000  Level Toronto Center
01:16PM 44.1667 -77.8167 67° East 480 552 35,000  Level Toronto Center
01:17PM 44.2167 -77.6333 69° East 480 552 35,000  Level Toronto Center
01:18PM 44.2667 -77.4667 67° East 490 564 35,000  Level Toronto Center
01:19PM 44.3167 -77.2833 69° East 490 564 35,000  Level Toronto Center
01:20PM 44.3667 -77.1167 67° East 480 552 35,000  Level Toronto Center
01:21PM 44.4167 -76.9167 71° East 480 552 35,000  Level Toronto Center
01:22PM 44.4667 -76.7667 65° Northeast 470 541 35,000  Level Toronto Center
01:23PM 44.5000 -76.6000 74° East 470 541 35,000  Level Toronto Center
01:24PM 44.5500 -76.4333 67° East 470 541 35,000  Level Toronto Center
01:25PM 44.6000 -76.2667 67° East 460 529 35,000 -660 Level Toronto Center
01:26PM 44.6667 -76.1000 61° Northeast 470 541 33,700 -1,740 Descending Toronto Center
01:27PM 44.7000 -75.9000 77° East 470 541 31,600 -2,040 Descending Toronto Center
01:28PM 44.7500 -75.7333 67° East 470 541 29,700 -1,980 Descending Toronto Center
01:29PM 44.7833 -75.5667 74° East 460 529 27,700 -2,700 Descending Toronto Center
01:30PM 44.8333 -75.4000 67° East 460 529 24,300 -2,940 Descending Toronto Center
01:31PM 44.8833 -75.2500 65° Northeast 440 506 21,900 -2,520 Descending Toronto Center
01:32PM 44.9167 -75.0833 74° East 430 495 19,300 -2,400 Descending Toronto Center
01:33PM 44.9500 -74.9500 71° East 420 483 17,100 -1,620 Descending Toronto Center
01:34PM 45.0167 -74.8000 58° Northeast 380 437 16,100 -600 Descending Toronto Center
01:35PM 45.0500 -74.6667 70° East 370 426 15,900 -120 Descending Toronto Center
01:36PM 45.1167 -74.5500 51° Northeast 390 449 15,900 -60 Level Toronto Center
01:37PM 45.1833 -74.4333 51° Northeast 390 449 15,800 -840 Descending Toronto Center
01:38PM 45.2333 -74.2833 65° Northeast 390 449 14,300 -1,500 Descending Toronto Center
01:39PM 45.2833 -74.1500 62° Northeast 390 449 12,800 -1,380 Descending Toronto Center
01:40PM 45.3500 -74.0333 51° Northeast 370 426 11,600 -1,620 Descending Toronto Center
01:41PM 45.4000 -73.9833 35° Northeast 290 334 9,600 -1,920 Descending Montreal Center
01:42PM 45.4667 -73.8833 46° Northeast 270 311 7,800 -1,500 Descending Montreal Center
01:43PM 45.5167 -73.8333 35° Northeast 260 299 6,700 -1,200 Descending Montreal Center
01:44PM 45.5667 -73.7667 43° Northeast 260 299 5,500 -1,260 Descending Montreal Center
01:45PM 45.6167 -73.7000 43° Northeast 250 288 4,200 -1,260 Descending Montreal Center
01:46PM 45.6333 -73.6167 74° East 210 242 3,000 -600 Descending Montreal Center
01:47PM 45.5833 -73.5667 145° Southeast 190 219 3,000 -600 Level Montreal Center
01:48PM 45.5333 -73.6500 229° Southwest 220 253 1,900 -1,020 Descending Montreal Center
01:49PM 45.5000 -73.7000 226° Southwest 160 184 1,000 -840 Descending Montreal Center
01:50PM 45.4667 -73.7167 199° South 140 161 300 -480 Descending Montreal Center
01:51PM 45.4500 -73.7500 235° Southwest 40 46 100 -240 Descending Montreal Center